Brandon, MS

6:34 AM CDT on May 24, 2015 (GMT -0500)
Raintree Place | | Change Station
CLOSE
Current Station
Personal Weather Station
Location: Brandon, MS
Elevation: 410 ft
Nearby Weather Stations

Elev 410 ft 32.26 °N, 89.98 °W | Updated 8 minutes ago

Clear
Clear
68.9 °F
Feels Like 68.9 °F
N
1.1
Wind Variable Wind from ESE

Today
High -- | Low -- °F
--% Chance of Precip.
Yesterday
High -- | Low -- °F
Precip. -- in
5:56 AM 7:56 PM
Waxing Crescent, 38% visible
Pressure 30.09 in
Visibility 10.0 miles
Clouds Few 25000 ft
Dew Point 69 °F
Humidity 99%
Rainfall 0.00 in
Snow Depth Not available.
UV 0 out of 12
Pollen 6.70 out of 12
Air Quality Not available.
Flu Activity No Activity
METAR KJAN 241054Z 13008KT 10SM FEW250 22/20 A3010 RMK AO2 SLP187 FIRST AUGMENTED OBSERVATION T02170200

More Conditions Fewer Conditions

Pressure 30.09 in
Visibility 10.0 miles
Clouds Few 25000 ft
Dew Point 69 °F
Humidity 99%
Rainfall 0.00 in
Snow Depth Not available.
UV 0 out of 12
Pollen 6.70 out of 12
Air Quality Not available.
Flu Activity No Activity
METAR KJAN 241054Z 13008KT 10SM FEW250 22/20 A3010 RMK AO2 SLP187 FIRST AUGMENTED OBSERVATION T02170200

More Conditions Fewer Conditions

10-Day Weather Forecast

Almanac

Astronomy

May. 24, 2015 Rise Set
Actual Time
Civil Twilight
Nautical Twilight
Astronomical Twilight
Moon
Length of Visible Light
Length of Day
Tomorrow will be .
, % of the Moon is Illuminated

Today's Extremes

State Highs State Lows

Community

WunderPhotos

Upload Photos

1,823,715 photos uploaded!

WunderBlogs® & News

Nearby

Air Quality

  Air Quality AQ Index Pollutant
Not available.

Snow Depth

Station Depth Elevation

Earthquake Activity

City Distance Mag. Time & Date
Minimum magnitude displayed is 2.5.

Coastal Water Temperatures

Place Temperature

Stations

Nearby Weather Stations

Station Location Temp. Windchill Dew Point Humidity Wind Precip. Elev Updated Type